Gandhi — A8OK8 — position and weather

sailwx.info

Track history (hours):
 
Tides and Currents Weather Stations Pressure Air Temp Water Temp Dewpoint Dewpoint Depression Visibility Wind Speed Wind Dir Waves Ship Positions

Gandhi

Last reported at 2017-Jan-18 03:32 UTC. Time now 2017-Jan-18 04:11 UTC.
Position N 45°26' E 012°13'.

Length 176 m; draft 7.3 m.

Type: Ship. MMSI: 636013645.

Date/timePositionNaut miles runAvg speedWind from/ knotsBaromVisibWave heightAir tempDewpointWater temp
2017-Jan-18 03:32N 45°26' E 012°13'0 0.0
2017-Jan-18 02:32N 45°26' E 012°13'0 0.0
2017-Jan-18 01:32N 45°26' E 012°13'0 0.0
2017-Jan-18 00:32N 45°26' E 012°13'0 0.0
2017-Jan-17 23:32N 45°26' E 012°13'0 0.0
2017-Jan-17 22:32N 45°26' E 012°13'0 0.0
2017-Jan-17 21:32N 45°26' E 012°13'0 0.0
2017-Jan-17 20:32N 45°26' E 012°13'0 0.0
2017-Jan-17 19:32N 45°26' E 012°13'0 0.0
2017-Jan-17 18:32N 45°26' E 012°13'0 0.0
2017-Jan-17 17:32N 45°26' E 012°13'0 0.0
2017-Jan-17 16:32N 45°26' E 012°13'0 0.0
2017-Jan-17 15:32N 45°26' E 012°13'0 0.0
2017-Jan-17 14:32N 45°26' E 012°13'0 0.0
2017-Jan-17 13:32N 45°26' E 012°13'0 0.0
2017-Jan-17 12:29N 45°26' E 012°13'0 0.0
2017-Jan-17 11:32N 45°26' E 012°13'0 0.0
2017-Jan-17 10:32N 45°26' E 012°13'0 0.0
2017-Jan-17 09:32N 45°26' E 012°13'0 0.0
2017-Jan-17 08:32N 45°26' E 012°13'0 0.0
2017-Jan-17 07:32N 45°26' E 012°13'0 0.0
2017-Jan-17 06:32N 45°26' E 012°13'0 0.0
2017-Jan-17 05:32N 45°26' E 012°13'0 0.0
2017-Jan-17 04:32N 45°26' E 012°13'0 0.0
2017-Jan-17 03:32N 45°26' E 012°13'0 0.0
2017-Jan-17 02:32N 45°26' E 012°13'0 0.0
2017-Jan-17 01:32N 45°26' E 012°13'0 0.0
2017-Jan-17 00:32N 45°26' E 012°13'0 0.0
2017-Jan-16 23:32N 45°26' E 012°13'0 0.0
2017-Jan-16 22:32N 45°26' E 012°13'0 0.0
2017-Jan-16 21:32N 45°26' E 012°13'0 0.0
2017-Jan-16 20:32N 45°26' E 012°13'0 0.0
2017-Jan-16 19:29N 45°26' E 012°13'0 0.0
2017-Jan-16 18:32N 45°26' E 012°13'0 0.0
2017-Jan-16 17:32N 45°26' E 012°13'0 0.0
2017-Jan-16 16:32N 45°26' E 012°13'0 0.0
2017-Jan-16 15:32N 45°26' E 012°13'0 0.0
2017-Jan-16 14:32N 45°26' E 012°13'0 0.0
2017-Jan-16 13:32N 45°26' E 012°13'0 0.0
2017-Jan-16 12:32N 45°26' E 012°13'2 1.6
2017-Jan-16 11:34N 45°26' E 012°16'7 7.2
2017-Jan-16 10:33N 45°20' E 012°21'5 4.7
2017-Jan-16 09:33N 45°19' E 012°28'1 0.6
2017-Jan-16 08:32N 45°20' E 012°29'0 0.0
2017-Jan-16 07:32N 45°20' E 012°29'0 0.0
2017-Jan-16 06:32N 45°20' E 012°29'0 0.0
2017-Jan-16 05:32N 45°20' E 012°29'0 0.0
2017-Jan-16 04:32N 45°20' E 012°29'0 0.0
2017-Jan-16 03:32N 45°20' E 012°29'0 0.0
2017-Jan-16 02:32N 45°20' E 012°29'0 0.0
2017-Jan-16 01:32N 45°20' E 012°29'0 0.0
2017-Jan-16 00:32N 45°20' E 012°29'0 0.0
2017-Jan-15 23:32N 45°20' E 012°29'0 0.0
2017-Jan-15 22:32N 45°20' E 012°29'0 0.0
2017-Jan-15 21:29N 45°20' E 012°29'0 0.0
2017-Jan-15 20:32N 45°20' E 012°29'0 0.0
2017-Jan-15 19:32N 45°20' E 012°29'0 0.0
2017-Jan-15 18:32N 45°20' E 012°29'0 0.0
2017-Jan-15 17:32N 45°20' E 012°29'0 0.1
2017-Jan-15 16:32N 45°20' E 012°29'0 0.0
2017-Jan-15 15:32N 45°20' E 012°29'0 0.0
2017-Jan-15 14:32N 45°20' E 012°29'0 0.0
2017-Jan-15 13:31N 45°20' E 012°29'0 0.0
2017-Jan-15 12:32N 45°20' E 012°29'0 0.0
2017-Jan-15 11:32N 45°20' E 012°29'0 0.0
2017-Jan-15 10:32N 45°20' E 012°29'0 0.0
2017-Jan-15 09:31N 45°20' E 012°29'0 0.0
2017-Jan-15 08:32N 45°20' E 012°29'0 0.0
2017-Jan-15 07:32N 45°20' E 012°29'0 0.0
2017-Jan-15 06:29N 45°20' E 012°29'0 0.0
2017-Jan-15 05:32N 45°20' E 012°29'0 0.0
2017-Jan-15 04:31N 45°20' E 012°29'0 0.0
2017-Jan-15 03:29N 45°20' E 012°29'0 0.0
2017-Jan-15 02:32N 45°20' E 012°29'0 0.0
2017-Jan-15 01:32N 45°20' E 012°29'0 0.0
2017-Jan-15 00:31N 45°20' E 012°29'0 0.0
2017-Jan-14 23:32N 45°20' E 012°29'0 0.0
2017-Jan-14 22:31N 45°20' E 012°29'0 0.0
2017-Jan-14 21:29N 45°20' E 012°29'0 0.0
2017-Jan-14 20:32N 45°20' E 012°29'0 0.1
2017-Jan-14 19:31N 45°20' E 012°29'0 0.0
2017-Jan-14 18:32N 45°20' E 012°29'0 0.0
2017-Jan-14 17:32N 45°20' E 012°29'0 0.0
2017-Jan-14 16:31N 45°20' E 012°29'0 0.0
2017-Jan-14 15:32N 45°20' E 012°29'0 0.0
2017-Jan-14 14:32N 45°20' E 012°29'0 0.0
2017-Jan-14 13:31N 45°20' E 012°29'0 0.0
2017-Jan-14 12:31N 45°20' E 012°29'0 0.0
2017-Jan-14 11:31N 45°20' E 012°29'0 0.0
2017-Jan-14 10:31N 45°20' E 012°29'0 0.0
2017-Jan-14 09:32N 45°20' E 012°29'0 0.0
2017-Jan-14 08:32N 45°20' E 012°29'0 0.1
2017-Jan-14 07:31N 45°20' E 012°29'0 0.1
2017-Jan-14 06:31N 45°20' E 012°29'0 0.0
2017-Jan-14 05:31N 45°20' E 012°29'0 0.0
2017-Jan-14 04:31N 45°20' E 012°29'0 0.0
2017-Jan-14 03:29N 45°20' E 012°29'0 0.1
2017-Jan-13 23:32N 45°20' E 012°29'0 0.0
2017-Jan-13 22:32N 45°20' E 012°28'0 0.0
2017-Jan-13 21:32N 45°20' E 012°29'5 5.0
2017-Jan-13 20:33N 45°16' E 012°33'1212.0
2017-Jan-13 19:33N 45°09' E 012°47'1212.4
2017-Jan-13 18:33N 44°58' E 012°54'1312.9
2017-Jan-13 17:33N 44°46' E 013°01'1312.9
2017-Jan-13 16:33N 44°33' E 013°07'1312.8
2017-Jan-13 15:33N 44°21' E 013°13'  
2017-Jan-11 11:33N 36°29' E 014°30'1312.4
2017-Jan-11 10:30N 36°31' E 014°14'  
2017-Jan-09 05:22N 37°26' E 000°01'1012.8
2017-Jan-09 04:33N 37°25' W 000°13'1312.9
2017-Jan-09 03:33N 37°27' W 000°29'1313.1
2017-Jan-09 02:33N 37°29' W 000°45'1211.7
2017-Jan-09 01:30N 37°34' W 000°59'  
Track history (hours):
 
Tides and Currents Weather Stations Pressure Air Temp Water Temp Dewpoint Dewpoint Depression Visibility Wind Speed Wind Dir Waves Ship Positions

Gandhi

Last reported at 2017-Jan-18 03:32 UTC. Time now 2017-Jan-18 04:11 UTC.
Position N 45°26' E 012°13'.

Length 176 m; draft 7.3 m.

Type: Ship. MMSI: 636013645.

Date/timePositionNaut miles runAvg speedWind from/ knotsBaromVisibWave heightAir tempDewpointWater temp
2017-Jan-18 03:32N 45°26' E 012°13'0 0.0
2017-Jan-18 02:32N 45°26' E 012°13'0 0.0
2017-Jan-18 01:32N 45°26' E 012°13'0 0.0
2017-Jan-18 00:32N 45°26' E 012°13'0 0.0
2017-Jan-17 23:32N 45°26' E 012°13'0 0.0
2017-Jan-17 22:32N 45°26' E 012°13'0 0.0
2017-Jan-17 21:32N 45°26' E 012°13'0 0.0
2017-Jan-17 20:32N 45°26' E 012°13'0 0.0
2017-Jan-17 19:32N 45°26' E 012°13'0 0.0
2017-Jan-17 18:32N 45°26' E 012°13'0 0.0
2017-Jan-17 17:32N 45°26' E 012°13'0 0.0
2017-Jan-17 16:32N 45°26' E 012°13'0 0.0
2017-Jan-17 15:32N 45°26' E 012°13'0 0.0
2017-Jan-17 14:32N 45°26' E 012°13'0 0.0
2017-Jan-17 13:32N 45°26' E 012°13'0 0.0
2017-Jan-17 12:29N 45°26' E 012°13'0 0.0
2017-Jan-17 11:32N 45°26' E 012°13'0 0.0
2017-Jan-17 10:32N 45°26' E 012°13'0 0.0
2017-Jan-17 09:32N 45°26' E 012°13'0 0.0
2017-Jan-17 08:32N 45°26' E 012°13'0 0.0
2017-Jan-17 07:32N 45°26' E 012°13'0 0.0
2017-Jan-17 06:32N 45°26' E 012°13'0 0.0
2017-Jan-17 05:32N 45°26' E 012°13'0 0.0
2017-Jan-17 04:32N 45°26' E 012°13'0 0.0
2017-Jan-17 03:32N 45°26' E 012°13'0 0.0
2017-Jan-17 02:32N 45°26' E 012°13'0 0.0
2017-Jan-17 01:32N 45°26' E 012°13'0 0.0
2017-Jan-17 00:32N 45°26' E 012°13'0 0.0
2017-Jan-16 23:32N 45°26' E 012°13'0 0.0
2017-Jan-16 22:32N 45°26' E 012°13'0 0.0
2017-Jan-16 21:32N 45°26' E 012°13'0 0.0
2017-Jan-16 20:32N 45°26' E 012°13'0 0.0
2017-Jan-16 19:29N 45°26' E 012°13'0 0.0
2017-Jan-16 18:32N 45°26' E 012°13'0 0.0
2017-Jan-16 17:32N 45°26' E 012°13'0 0.0
2017-Jan-16 16:32N 45°26' E 012°13'0 0.0
2017-Jan-16 15:32N 45°26' E 012°13'0 0.0
2017-Jan-16 14:32N 45°26' E 012°13'0 0.0
2017-Jan-16 13:32N 45°26' E 012°13'0 0.0
2017-Jan-16 12:32N 45°26' E 012°13'2 1.6
2017-Jan-16 11:34N 45°26' E 012°16'7 7.2
2017-Jan-16 10:33N 45°20' E 012°21'5 4.7
2017-Jan-16 09:33N 45°19' E 012°28'1 0.6
2017-Jan-16 08:32N 45°20' E 012°29'0 0.0
2017-Jan-16 07:32N 45°20' E 012°29'0 0.0
2017-Jan-16 06:32N 45°20' E 012°29'0 0.0
2017-Jan-16 05:32N 45°20' E 012°29'0 0.0
2017-Jan-16 04:32N 45°20' E 012°29'0 0.0
2017-Jan-16 03:32N 45°20' E 012°29'0 0.0
2017-Jan-16 02:32N 45°20' E 012°29'0 0.0
2017-Jan-16 01:32N 45°20' E 012°29'0 0.0
2017-Jan-16 00:32N 45°20' E 012°29'0 0.0
2017-Jan-15 23:32N 45°20' E 012°29'0 0.0
2017-Jan-15 22:32N 45°20' E 012°29'0 0.0
2017-Jan-15 21:29N 45°20' E 012°29'0 0.0
2017-Jan-15 20:32N 45°20' E 012°29'0 0.0
2017-Jan-15 19:32N 45°20' E 012°29'0 0.0
2017-Jan-15 18:32N 45°20' E 012°29'0 0.0
2017-Jan-15 17:32N 45°20' E 012°29'0 0.1
2017-Jan-15 16:32N 45°20' E 012°29'0 0.0
2017-Jan-15 15:32N 45°20' E 012°29'0 0.0
2017-Jan-15 14:32N 45°20' E 012°29'0 0.0
2017-Jan-15 13:31N 45°20' E 012°29'0 0.0
2017-Jan-15 12:32N 45°20' E 012°29'0 0.0
2017-Jan-15 11:32N 45°20' E 012°29'0 0.0
2017-Jan-15 10:32N 45°20' E 012°29'0 0.0
2017-Jan-15 09:31N 45°20' E 012°29'0 0.0
2017-Jan-15 08:32N 45°20' E 012°29'0 0.0
2017-Jan-15 07:32N 45°20' E 012°29'0 0.0
2017-Jan-15 06:29N 45°20' E 012°29'0 0.0
2017-Jan-15 05:32N 45°20' E 012°29'0 0.0
2017-Jan-15 04:31N 45°20' E 012°29'0 0.0
2017-Jan-15 03:29N 45°20' E 012°29'0 0.0
2017-Jan-15 02:32N 45°20' E 012°29'0 0.0
2017-Jan-15 01:32N 45°20' E 012°29'0 0.0
2017-Jan-15 00:31N 45°20' E 012°29'0 0.0
2017-Jan-14 23:32N 45°20' E 012°29'0 0.0
2017-Jan-14 22:31N 45°20' E 012°29'0 0.0
2017-Jan-14 21:29N 45°20' E 012°29'0 0.0
2017-Jan-14 20:32N 45°20' E 012°29'0 0.1
2017-Jan-14 19:31N 45°20' E 012°29'0 0.0
2017-Jan-14 18:32N 45°20' E 012°29'0 0.0
2017-Jan-14 17:32N 45°20' E 012°29'0 0.0
2017-Jan-14 16:31N 45°20' E 012°29'0 0.0
2017-Jan-14 15:32N 45°20' E 012°29'0 0.0
2017-Jan-14 14:32N 45°20' E 012°29'0 0.0
2017-Jan-14 13:31N 45°20' E 012°29'0 0.0
2017-Jan-14 12:31N 45°20' E 012°29'0 0.0
2017-Jan-14 11:31N 45°20' E 012°29'0 0.0
2017-Jan-14 10:31N 45°20' E 012°29'0 0.0
2017-Jan-14 09:32N 45°20' E 012°29'0 0.0
2017-Jan-14 08:32N 45°20' E 012°29'0 0.1
2017-Jan-14 07:31N 45°20' E 012°29'0 0.1
2017-Jan-14 06:31N 45°20' E 012°29'0 0.0
2017-Jan-14 05:31N 45°20' E 012°29'0 0.0
2017-Jan-14 04:31N 45°20' E 012°29'0 0.0
2017-Jan-14 03:29N 45°20' E 012°29'0 0.1
2017-Jan-13 23:32N 45°20' E 012°29'0 0.0
2017-Jan-13 22:32N 45°20' E 012°28'0 0.0
2017-Jan-13 21:32N 45°20' E 012°29'5 5.0
2017-Jan-13 20:33N 45°16' E 012°33'1212.0
2017-Jan-13 19:33N 45°09' E 012°47'1212.4
2017-Jan-13 18:33N 44°58' E 012°54'1312.9
2017-Jan-13 17:33N 44°46' E 013°01'1312.9
2017-Jan-13 16:33N 44°33' E 013°07'1312.8
2017-Jan-13 15:33N 44°21' E 013°13'  
2017-Jan-11 11:33N 36°29' E 014°30'1312.4
2017-Jan-11 10:30N 36°31' E 014°14'  
2017-Jan-09 05:22N 37°26' E 000°01'1012.8
2017-Jan-09 04:33N 37°25' W 000°13'1312.9
2017-Jan-09 03:33N 37°27' W 000°29'1313.1
2017-Jan-09 02:33N 37°29' W 000°45'1211.7
2017-Jan-09 01:30N 37°34' W 000°59'  

Dump ship's entire track history